Terminal Aerodrome Forecast
Issued by NWS

Current Version | Previous Version | Graphics & Text | Print | Product List | Glossary On
Versions: 1 2 3 4 5 6 7 8 9 10 11 12 13 14 15 16 17 18 19 20
000
FTUS41 KILN 192000 AAA
TAFLUK
TAF AMD
KLUK 192031Z 1921/2018 29010KT P6SM FEW250
     FM200000 VRB03KT P6SM SCT250
     FM201600 02008KT P6SM SCT150=

USA.gov is the U.S. government's official web portal to all federal, state and local government web resources and services.